sensor_id;sensor_type;location;lat;lon;timestamp;P1;durP1;ratioP1;P2;durP2;ratioP2
55316;SDS011;41178;48.956;8.130;2023-11-21T00:04:15;6.73;;;3.03;;
55316;SDS011;41178;48.956;8.130;2023-11-21T00:09:17;5.00;;;2.77;;
55316;SDS011;41178;48.956;8.130;2023-11-21T00:14:19;4.97;;;2.93;;
55316;SDS011;41178;48.956;8.130;2023-11-21T00:19:21;5.27;;;3.13;;
55316;SDS011;41178;48.956;8.130;2023-11-21T00:24:23;6.07;;;2.90;;
55316;SDS011;41178;48.956;8.130;2023-11-21T00:29:26;4.50;;;3.10;;
55316;SDS011;41178;48.956;8.130;2023-11-21T00:34:27;7.53;;;3.17;;
55316;SDS011;41178;48.956;8.130;2023-11-21T00:39:29;5.93;;;2.90;;
55316;SDS011;41178;48.956;8.130;2023-11-21T00:44:30;7.17;;;3.47;;
55316;SDS011;41178;48.956;8.130;2023-11-21T00:49:32;7.57;;;2.50;;
55316;SDS011;41178;48.956;8.130;2023-11-21T00:54:34;5.37;;;2.70;;
55316;SDS011;41178;48.956;8.130;2023-11-21T00:59:35;3.50;;;2.50;;
55316;SDS011;41178;48.956;8.130;2023-11-21T01:04:37;7.47;;;2.90;;
55316;SDS011;41178;48.956;8.130;2023-11-21T01:09:39;4.67;;;2.87;;
55316;SDS011;41178;48.956;8.130;2023-11-21T01:14:41;4.20;;;2.40;;
55316;SDS011;41178;48.956;8.130;2023-11-21T01:19:42;4.97;;;2.80;;
55316;SDS011;41178;48.956;8.130;2023-11-21T01:24:44;4.33;;;2.40;;
55316;SDS011;41178;48.956;8.130;2023-11-21T01:29:46;3.37;;;2.20;;
55316;SDS011;41178;48.956;8.130;2023-11-21T01:34:47;3.83;;;2.60;;
55316;SDS011;41178;48.956;8.130;2023-11-21T01:39:49;6.70;;;3.23;;
55316;SDS011;41178;48.956;8.130;2023-11-21T01:44:51;4.57;;;2.80;;
55316;SDS011;41178;48.956;8.130;2023-11-21T01:49:52;3.57;;;2.40;;
55316;SDS011;41178;48.956;8.130;2023-11-21T01:54:54;5.23;;;2.77;;
55316;SDS011;41178;48.956;8.130;2023-11-21T01:59:56;4.73;;;2.83;;
55316;SDS011;41178;48.956;8.130;2023-11-21T02:05:00;6.90;;;3.10;;
55316;SDS011;41178;48.956;8.130;2023-11-21T02:10:02;6.53;;;3.07;;
55316;SDS011;41178;48.956;8.130;2023-11-21T02:15:04;3.63;;;3.00;;
55316;SDS011;41178;48.956;8.130;2023-11-21T02:20:11;9.20;;;3.20;;
55316;SDS011;41178;48.956;8.130;2023-11-21T02:25:16;5.80;;;2.83;;
55316;SDS011;41178;48.956;8.130;2023-11-21T02:30:19;4.30;;;2.87;;
55316;SDS011;41178;48.956;8.130;2023-11-21T02:35:21;4.80;;;2.77;;
55316;SDS011;41178;48.956;8.130;2023-11-21T02:40:22;3.37;;;2.70;;
55316;SDS011;41178;48.956;8.130;2023-11-21T02:45:26;5.70;;;2.80;;
55316;SDS011;41178;48.956;8.130;2023-11-21T02:50:28;3.90;;;3.07;;
55316;SDS011;41178;48.956;8.130;2023-11-21T02:55:31;5.23;;;2.67;;
55316;SDS011;41178;48.956;8.130;2023-11-21T03:00:36;7.33;;;3.90;;
55316;SDS011;41178;48.956;8.130;2023-11-21T03:05:37;4.67;;;3.13;;
55316;SDS011;41178;48.956;8.130;2023-11-21T03:10:39;4.60;;;3.03;;
55316;SDS011;41178;48.956;8.130;2023-11-21T03:15:41;4.07;;;2.93;;
55316;SDS011;41178;48.956;8.130;2023-11-21T03:20:44;4.50;;;3.23;;
55316;SDS011;41178;48.956;8.130;2023-11-21T03:25:47;2.93;;;2.57;;
55316;SDS011;41178;48.956;8.130;2023-11-21T03:30:49;3.53;;;2.47;;
55316;SDS011;41178;48.956;8.130;2023-11-21T03:35:51;2.90;;;2.70;;
55316;SDS011;41178;48.956;8.130;2023-11-21T03:40:54;5.87;;;2.87;;
55316;SDS011;41178;48.956;8.130;2023-11-21T03:45:56;6.13;;;2.53;;
55316;SDS011;41178;48.956;8.130;2023-11-21T03:50:57;3.23;;;2.87;;
55316;SDS011;41178;48.956;8.130;2023-11-21T03:55:59;4.13;;;3.00;;
55316;SDS011;41178;48.956;8.130;2023-11-21T04:01:04;2.67;;;2.47;;
55316;SDS011;41178;48.956;8.130;2023-11-21T04:06:05;4.47;;;2.87;;
55316;SDS011;41178;48.956;8.130;2023-11-21T04:11:07;5.23;;;2.70;;
55316;SDS011;41178;48.956;8.130;2023-11-21T04:16:09;4.47;;;2.83;;
55316;SDS011;41178;48.956;8.130;2023-11-21T04:21:11;5.87;;;2.50;;
55316;SDS011;41178;48.956;8.130;2023-11-21T04:26:14;3.30;;;2.77;;
55316;SDS011;41178;48.956;8.130;2023-11-21T04:31:16;5.00;;;3.13;;
55316;SDS011;41178;48.956;8.130;2023-11-21T04:36:17;4.80;;;2.90;;
55316;SDS011;41178;48.956;8.130;2023-11-21T04:41:19;4.00;;;2.63;;
55316;SDS011;41178;48.956;8.130;2023-11-21T04:46:21;5.73;;;2.73;;
55316;SDS011;41178;48.956;8.130;2023-11-21T04:51:23;5.57;;;2.93;;
55316;SDS011;41178;48.956;8.130;2023-11-21T04:56:25;3.63;;;2.50;;
55316;SDS011;41178;48.956;8.130;2023-11-21T05:01:27;3.13;;;2.83;;
55316;SDS011;41178;48.956;8.130;2023-11-21T05:06:29;3.37;;;3.10;;
55316;SDS011;41178;48.956;8.130;2023-11-21T05:11:30;4.10;;;2.90;;
55316;SDS011;41178;48.956;8.130;2023-11-21T05:16:33;4.87;;;3.10;;
55316;SDS011;41178;48.956;8.130;2023-11-21T05:21:36;3.13;;;2.90;;
55316;SDS011;41178;48.956;8.130;2023-11-21T05:26:37;3.43;;;3.00;;
55316;SDS011;41178;48.956;8.130;2023-11-21T05:31:40;3.40;;;3.10;;
55316;SDS011;41178;48.956;8.130;2023-11-21T05:36:45;5.60;;;3.37;;
55316;SDS011;41178;48.956;8.130;2023-11-21T05:41:47;6.17;;;3.87;;
55316;SDS011;41178;48.956;8.130;2023-11-21T05:46:50;4.33;;;3.70;;
55316;SDS011;41178;48.956;8.130;2023-11-21T05:51:53;6.80;;;4.13;;
55316;SDS011;41178;48.956;8.130;2023-11-21T05:56:55;5.93;;;4.33;;
55316;SDS011;41178;48.956;8.130;2023-11-21T06:01:57;5.13;;;4.30;;
55316;SDS011;41178;48.956;8.130;2023-11-21T06:07:00;6.27;;;4.33;;
55316;SDS011;41178;48.956;8.130;2023-11-21T06:12:03;7.23;;;4.00;;
55316;SDS011;41178;48.956;8.130;2023-11-21T06:17:05;7.27;;;4.37;;
55316;SDS011;41178;48.956;8.130;2023-11-21T06:22:07;7.50;;;4.40;;
55316;SDS011;41178;48.956;8.130;2023-11-21T06:27:09;5.73;;;4.90;;
55316;SDS011;41178;48.956;8.130;2023-11-21T06:32:11;7.03;;;4.67;;
55316;SDS011;41178;48.956;8.130;2023-11-21T06:37:12;6.10;;;4.50;;
55316;SDS011;41178;48.956;8.130;2023-11-21T06:42:14;6.93;;;5.07;;
55316;SDS011;41178;48.956;8.130;2023-11-21T06:47:16;5.53;;;4.83;;
55316;SDS011;41178;48.956;8.130;2023-11-21T06:52:19;10.50;;;5.17;;
55316;SDS011;41178;48.956;8.130;2023-11-21T06:57:22;9.70;;;5.43;;
55316;SDS011;41178;48.956;8.130;2023-11-21T07:02:25;5.37;;;4.83;;
55316;SDS011;41178;48.956;8.130;2023-11-21T07:07:27;7.80;;;5.20;;
55316;SDS011;41178;48.956;8.130;2023-11-21T07:12:30;6.50;;;5.57;;
55316;SDS011;41178;48.956;8.130;2023-11-21T07:17:32;9.50;;;6.90;;
55316;SDS011;41178;48.956;8.130;2023-11-21T07:22:34;8.03;;;6.30;;
55316;SDS011;41178;48.956;8.130;2023-11-21T07:27:36;7.50;;;5.77;;
55316;SDS011;41178;48.956;8.130;2023-11-21T07:32:38;7.03;;;5.57;;
55316;SDS011;41178;48.956;8.130;2023-11-21T07:37:42;7.13;;;5.17;;
55316;SDS011;41178;48.956;8.130;2023-11-21T07:42:44;6.13;;;5.40;;
55316;SDS011;41178;48.956;8.130;2023-11-21T07:47:46;9.60;;;5.43;;
55316;SDS011;41178;48.956;8.130;2023-11-21T07:52:47;7.60;;;5.53;;
55316;SDS011;41178;48.956;8.130;2023-11-21T07:57:50;6.23;;;4.83;;
55316;SDS011;41178;48.956;8.130;2023-11-21T08:02:52;7.43;;;4.70;;
55316;SDS011;41178;48.956;8.130;2023-11-21T08:07:54;6.27;;;5.53;;
55316;SDS011;41178;48.956;8.130;2023-11-21T08:12:56;4.50;;;4.10;;
55316;SDS011;41178;48.956;8.130;2023-11-21T08:17:58;5.90;;;4.57;;
55316;SDS011;41178;48.956;8.130;2023-11-21T08:23:02;4.67;;;4.10;;
55316;SDS011;41178;48.956;8.130;2023-11-21T08:28:07;4.47;;;4.07;;
55316;SDS011;41178;48.956;8.130;2023-11-21T08:33:08;4.67;;;4.17;;
55316;SDS011;41178;48.956;8.130;2023-11-21T08:38:10;4.77;;;4.10;;
55316;SDS011;41178;48.956;8.130;2023-11-21T08:43:13;7.17;;;4.20;;
55316;SDS011;41178;48.956;8.130;2023-11-21T08:48:16;7.47;;;5.00;;
55316;SDS011;41178;48.956;8.130;2023-11-21T08:53:17;4.10;;;3.70;;
55316;SDS011;41178;48.956;8.130;2023-11-21T08:58:19;3.83;;;3.53;;
55316;SDS011;41178;48.956;8.130;2023-11-21T09:03:21;4.17;;;3.77;;
55316;SDS011;41178;48.956;8.130;2023-11-21T09:08:23;4.20;;;3.80;;
55316;SDS011;41178;48.956;8.130;2023-11-21T09:13:24;5.07;;;4.03;;
55316;SDS011;41178;48.956;8.130;2023-11-21T09:18:26;4.13;;;3.80;;
55316;SDS011;41178;48.956;8.130;2023-11-21T09:23:28;4.67;;;3.37;;
55316;SDS011;41178;48.956;8.130;2023-11-21T09:28:30;7.33;;;3.77;;
55316;SDS011;41178;48.956;8.130;2023-11-21T09:33:31;3.43;;;3.13;;
55316;SDS011;41178;48.956;8.130;2023-11-21T09:38:33;7.13;;;3.50;;
55316;SDS011;41178;48.956;8.130;2023-11-21T09:43:36;3.73;;;3.23;;
55316;SDS011;41178;48.956;8.130;2023-11-21T09:48:38;6.03;;;3.60;;
55316;SDS011;41178;48.956;8.130;2023-11-21T09:53:41;3.70;;;3.40;;
55316;SDS011;41178;48.956;8.130;2023-11-21T09:58:49;3.40;;;3.10;;
55316;SDS011;41178;48.956;8.130;2023-11-21T10:03:52;4.10;;;3.20;;
55316;SDS011;41178;48.956;8.130;2023-11-21T10:08:58;3.80;;;3.50;;
55316;SDS011;41178;48.956;8.130;2023-11-21T10:14:00;3.60;;;3.30;;
55316;SDS011;41178;48.956;8.130;2023-11-21T10:19:04;4.33;;;3.17;;
55316;SDS011;41178;48.956;8.130;2023-11-21T10:24:12;3.73;;;3.43;;
55316;SDS011;41178;48.956;8.130;2023-11-21T10:29:14;3.60;;;3.27;;
55316;SDS011;41178;48.956;8.130;2023-11-21T10:34:20;3.17;;;2.80;;
55316;SDS011;41178;48.956;8.130;2023-11-21T10:39:22;3.37;;;3.03;;
55316;SDS011;41178;48.956;8.130;2023-11-21T10:44:25;2.90;;;2.70;;
55316;SDS011;41178;48.956;8.130;2023-11-21T10:49:28;3.47;;;2.70;;
55316;SDS011;41178;48.956;8.130;2023-11-21T10:54:30;3.10;;;2.90;;
55316;SDS011;41178;48.956;8.130;2023-11-21T10:59:31;3.33;;;3.03;;
55316;SDS011;41178;48.956;8.130;2023-11-21T11:06:07;2.93;;;2.60;;
55316;SDS011;41178;48.956;8.130;2023-11-21T11:11:13;3.63;;;3.00;;
55316;SDS011;41178;48.956;8.130;2023-11-21T11:16:15;3.33;;;3.00;;
55316;SDS011;41178;48.956;8.130;2023-11-21T11:21:27;2.40;;;2.30;;
55316;SDS011;41178;48.956;8.130;2023-11-21T11:26:44;2.30;;;2.20;;
55316;SDS011;41178;48.956;8.130;2023-11-21T11:37:11;3.00;;;2.80;;
55316;SDS011;41178;48.956;8.130;2023-11-21T11:42:14;2.73;;;2.53;;
55316;SDS011;41178;48.956;8.130;2023-11-21T11:47:26;2.70;;;2.40;;
55316;SDS011;41178;48.956;8.130;2023-11-21T11:52:35;3.77;;;2.50;;
55316;SDS011;41178;48.956;8.130;2023-11-21T11:57:42;2.90;;;2.70;;
55316;SDS011;41178;48.956;8.130;2023-11-21T12:02:45;3.47;;;3.17;;
55316;SDS011;41178;48.956;8.130;2023-11-21T12:07:51;3.23;;;2.93;;
55316;SDS011;41178;48.956;8.130;2023-11-21T12:12:57;2.73;;;2.53;;
55316;SDS011;41178;48.956;8.130;2023-11-21T12:18:00;2.50;;;2.40;;
55316;SDS011;41178;48.956;8.130;2023-11-21T12:23:02;2.50;;;2.30;;
55316;SDS011;41178;48.956;8.130;2023-11-21T12:28:06;2.67;;;2.47;;
55316;SDS011;41178;48.956;8.130;2023-11-21T12:33:08;2.53;;;2.33;;
55316;SDS011;41178;48.956;8.130;2023-11-21T12:38:11;3.67;;;2.30;;
55316;SDS011;41178;48.956;8.130;2023-11-21T12:43:13;2.40;;;2.20;;
55316;SDS011;41178;48.956;8.130;2023-11-21T12:48:15;2.13;;;2.03;;
55316;SDS011;41178;48.956;8.130;2023-11-21T12:53:18;2.10;;;2.00;;
55316;SDS011;41178;48.956;8.130;2023-11-21T12:58:20;2.90;;;2.57;;
55316;SDS011;41178;48.956;8.130;2023-11-21T13:03:26;2.70;;;2.50;;
55316;SDS011;41178;48.956;8.130;2023-11-21T13:08:28;3.30;;;2.60;;
55316;SDS011;41178;48.956;8.130;2023-11-21T13:13:32;3.73;;;3.00;;
55316;SDS011;41178;48.956;8.130;2023-11-21T13:18:34;3.10;;;2.80;;
55316;SDS011;41178;48.956;8.130;2023-11-21T13:23:36;4.33;;;3.27;;
55316;SDS011;41178;48.956;8.130;2023-11-21T13:28:39;4.00;;;3.07;;
55316;SDS011;41178;48.956;8.130;2023-11-21T13:33:43;3.40;;;3.10;;
55316;SDS011;41178;48.956;8.130;2023-11-21T13:38:51;2.97;;;2.77;;
55316;SDS011;41178;48.956;8.130;2023-11-21T13:43:56;4.40;;;3.10;;
55316;SDS011;41178;48.956;8.130;2023-11-21T13:49:07;2.90;;;2.70;;
55316;SDS011;41178;48.956;8.130;2023-11-21T13:54:11;3.73;;;2.60;;
55316;SDS011;41178;48.956;8.130;2023-11-21T13:59:13;3.30;;;2.67;;
55316;SDS011;41178;48.956;8.130;2023-11-21T14:04:22;3.70;;;3.30;;
55316;SDS011;41178;48.956;8.130;2023-11-21T14:09:27;3.27;;;2.97;;
55316;SDS011;41178;48.956;8.130;2023-11-21T14:14:45;3.20;;;2.90;;
55316;SDS011;41178;48.956;8.130;2023-11-21T14:19:49;3.93;;;3.30;;
55316;SDS011;41178;48.956;8.130;2023-11-21T14:24:51;3.07;;;2.80;;
55316;SDS011;41178;48.956;8.130;2023-11-21T14:29:53;3.07;;;2.53;;
55316;SDS011;41178;48.956;8.130;2023-11-21T14:34:55;3.67;;;3.30;;
55316;SDS011;41178;48.956;8.130;2023-11-21T14:39:57;3.00;;;2.80;;
55316;SDS011;41178;48.956;8.130;2023-11-21T14:44:58;3.53;;;2.83;;
55316;SDS011;41178;48.956;8.130;2023-11-21T14:50:04;2.60;;;2.40;;
55316;SDS011;41178;48.956;8.130;2023-11-21T14:55:26;3.47;;;2.90;;
55316;SDS011;41178;48.956;8.130;2023-11-21T15:00:33;5.13;;;3.40;;
55316;SDS011;41178;48.956;8.130;2023-11-21T15:05:37;5.63;;;2.70;;
55316;SDS011;41178;48.956;8.130;2023-11-21T15:10:40;4.40;;;2.77;;
55316;SDS011;41178;48.956;8.130;2023-11-21T15:15:48;6.90;;;2.80;;
55316;SDS011;41178;48.956;8.130;2023-11-21T15:20:53;3.30;;;2.73;;
55316;SDS011;41178;48.956;8.130;2023-11-21T15:25:56;19.93;;;15.60;;
55316;SDS011;41178;48.956;8.130;2023-11-21T15:30:59;3.43;;;3.13;;
55316;SDS011;41178;48.956;8.130;2023-11-21T15:36:01;6.37;;;4.43;;
55316;SDS011;41178;48.956;8.130;2023-11-21T15:41:03;4.87;;;3.47;;
55316;SDS011;41178;48.956;8.130;2023-11-21T15:46:06;2.70;;;2.50;;
55316;SDS011;41178;48.956;8.130;2023-11-21T15:51:09;4.50;;;2.70;;
55316;SDS011;41178;48.956;8.130;2023-11-21T15:56:13;7.97;;;3.50;;
55316;SDS011;41178;48.956;8.130;2023-11-21T16:01:16;4.23;;;2.97;;
55316;SDS011;41178;48.956;8.130;2023-11-21T16:06:18;5.83;;;3.60;;
55316;SDS011;41178;48.956;8.130;2023-11-21T16:11:20;8.40;;;4.33;;
55316;SDS011;41178;48.956;8.130;2023-11-21T16:16:22;3.40;;;2.97;;
55316;SDS011;41178;48.956;8.130;2023-11-21T16:21:23;3.27;;;2.90;;
55316;SDS011;41178;48.956;8.130;2023-11-21T16:26:26;3.93;;;3.40;;
55316;SDS011;41178;48.956;8.130;2023-11-21T16:31:29;5.37;;;3.37;;
55316;SDS011;41178;48.956;8.130;2023-11-21T16:36:31;6.60;;;4.23;;
55316;SDS011;41178;48.956;8.130;2023-11-21T16:41:32;9.07;;;3.80;;
55316;SDS011;41178;48.956;8.130;2023-11-21T16:46:34;5.43;;;3.83;;
55316;SDS011;41178;48.956;8.130;2023-11-21T16:51:36;3.63;;;3.23;;
55316;SDS011;41178;48.956;8.130;2023-11-21T16:56:37;7.67;;;3.57;;
55316;SDS011;41178;48.956;8.130;2023-11-21T17:01:39;6.33;;;3.77;;
55316;SDS011;41178;48.956;8.130;2023-11-21T17:06:42;6.90;;;3.60;;
55316;SDS011;41178;48.956;8.130;2023-11-21T17:11:47;5.23;;;3.30;;
55316;SDS011;41178;48.956;8.130;2023-11-21T17:16:50;7.60;;;3.67;;
55316;SDS011;41178;48.956;8.130;2023-11-21T17:21:52;4.53;;;3.73;;
55316;SDS011;41178;48.956;8.130;2023-11-21T17:26:54;6.20;;;4.20;;
55316;SDS011;41178;48.956;8.130;2023-11-21T17:31:56;4.63;;;4.13;;
55316;SDS011;41178;48.956;8.130;2023-11-21T17:36:58;7.13;;;4.33;;
55316;SDS011;41178;48.956;8.130;2023-11-21T17:42:00;5.20;;;3.90;;
55316;SDS011;41178;48.956;8.130;2023-11-21T17:47:03;7.63;;;4.30;;
55316;SDS011;41178;48.956;8.130;2023-11-21T17:52:05;10.13;;;4.23;;
55316;SDS011;41178;48.956;8.130;2023-11-21T17:57:07;5.97;;;4.47;;
55316;SDS011;41178;48.956;8.130;2023-11-21T18:02:09;7.33;;;4.47;;
55316;SDS011;41178;48.956;8.130;2023-11-21T18:07:11;6.07;;;4.17;;
55316;SDS011;41178;48.956;8.130;2023-11-21T18:12:14;6.03;;;3.83;;
55316;SDS011;41178;48.956;8.130;2023-11-21T18:17:16;6.43;;;4.50;;
55316;SDS011;41178;48.956;8.130;2023-11-21T18:22:18;6.67;;;4.27;;
55316;SDS011;41178;48.956;8.130;2023-11-21T18:27:22;5.20;;;4.37;;
55316;SDS011;41178;48.956;8.130;2023-11-21T18:32:30;8.17;;;6.13;;
55316;SDS011;41178;48.956;8.130;2023-11-21T18:37:31;5.40;;;4.70;;
55316;SDS011;41178;48.956;8.130;2023-11-21T18:42:33;7.43;;;5.60;;
55316;SDS011;41178;48.956;8.130;2023-11-21T18:47:35;6.83;;;4.97;;
55316;SDS011;41178;48.956;8.130;2023-11-21T18:52:37;7.00;;;5.20;;
55316;SDS011;41178;48.956;8.130;2023-11-21T18:57:39;6.47;;;4.77;;
55316;SDS011;41178;48.956;8.130;2023-11-21T19:02:41;7.90;;;5.97;;
55316;SDS011;41178;48.956;8.130;2023-11-21T19:07:44;8.30;;;7.07;;
55316;SDS011;41178;48.956;8.130;2023-11-21T19:12:46;7.90;;;5.33;;
55316;SDS011;41178;48.956;8.130;2023-11-21T19:17:48;7.50;;;4.77;;
55316;SDS011;41178;48.956;8.130;2023-11-21T19:22:50;10.60;;;4.80;;
55316;SDS011;41178;48.956;8.130;2023-11-21T19:27:52;6.90;;;4.90;;
55316;SDS011;41178;48.956;8.130;2023-11-21T19:32:53;8.00;;;5.00;;
55316;SDS011;41178;48.956;8.130;2023-11-21T19:37:56;8.53;;;6.20;;
55316;SDS011;41178;48.956;8.130;2023-11-21T19:43:01;10.33;;;7.17;;
55316;SDS011;41178;48.956;8.130;2023-11-21T19:48:06;9.70;;;5.93;;
55316;SDS011;41178;48.956;8.130;2023-11-21T19:53:09;8.03;;;5.23;;
55316;SDS011;41178;48.956;8.130;2023-11-21T19:58:12;8.50;;;5.10;;
55316;SDS011;41178;48.956;8.130;2023-11-21T20:03:18;8.30;;;5.80;;
55316;SDS011;41178;48.956;8.130;2023-11-21T20:08:21;9.13;;;5.63;;
55316;SDS011;41178;48.956;8.130;2023-11-21T20:13:23;7.27;;;5.43;;
55316;SDS011;41178;48.956;8.130;2023-11-21T20:18:25;11.23;;;6.70;;
55316;SDS011;41178;48.956;8.130;2023-11-21T20:23:27;9.67;;;5.97;;
55316;SDS011;41178;48.956;8.130;2023-11-21T20:28:33;10.17;;;6.40;;
55316;SDS011;41178;48.956;8.130;2023-11-21T20:33:34;10.67;;;6.17;;
55316;SDS011;41178;48.956;8.130;2023-11-21T20:38:36;9.73;;;6.47;;
55316;SDS011;41178;48.956;8.130;2023-11-21T20:43:38;10.00;;;6.97;;
55316;SDS011;41178;48.956;8.130;2023-11-21T20:48:40;8.13;;;6.00;;
55316;SDS011;41178;48.956;8.130;2023-11-21T20:53:42;9.23;;;6.40;;
55316;SDS011;41178;48.956;8.130;2023-11-21T20:58:44;15.57;;;7.07;;
55316;SDS011;41178;48.956;8.130;2023-11-21T21:03:46;10.50;;;6.93;;
55316;SDS011;41178;48.956;8.130;2023-11-21T21:08:48;11.37;;;7.37;;
55316;SDS011;41178;48.956;8.130;2023-11-21T21:13:49;8.90;;;6.43;;
55316;SDS011;41178;48.956;8.130;2023-11-21T21:18:54;9.20;;;7.27;;
55316;SDS011;41178;48.956;8.130;2023-11-21T21:23:57;11.50;;;8.67;;
55316;SDS011;41178;48.956;8.130;2023-11-21T21:29:00;9.07;;;7.47;;
55316;SDS011;41178;48.956;8.130;2023-11-21T21:34:03;10.83;;;7.77;;
55316;SDS011;41178;48.956;8.130;2023-11-21T21:39:05;9.97;;;6.50;;
55316;SDS011;41178;48.956;8.130;2023-11-21T21:44:06;8.93;;;6.30;;
55316;SDS011;41178;48.956;8.130;2023-11-21T21:49:09;10.93;;;6.70;;
55316;SDS011;41178;48.956;8.130;2023-11-21T21:54:10;9.53;;;6.13;;
55316;SDS011;41178;48.956;8.130;2023-11-21T21:59:12;11.37;;;7.27;;
55316;SDS011;41178;48.956;8.130;2023-11-21T22:04:14;9.53;;;6.80;;
55316;SDS011;41178;48.956;8.130;2023-11-21T22:09:16;9.67;;;6.77;;
55316;SDS011;41178;48.956;8.130;2023-11-21T22:14:18;11.17;;;7.10;;
55316;SDS011;41178;48.956;8.130;2023-11-21T22:19:20;10.23;;;7.87;;
55316;SDS011;41178;48.956;8.130;2023-11-21T22:24:21;14.53;;;8.03;;
55316;SDS011;41178;48.956;8.130;2023-11-21T22:29:23;10.30;;;7.03;;
55316;SDS011;41178;48.956;8.130;2023-11-21T22:34:25;13.23;;;7.40;;
55316;SDS011;41178;48.956;8.130;2023-11-21T22:39:27;10.60;;;7.47;;
55316;SDS011;41178;48.956;8.130;2023-11-21T22:44:28;11.00;;;7.37;;
55316;SDS011;41178;48.956;8.130;2023-11-21T22:49:30;11.63;;;7.63;;
55316;SDS011;41178;48.956;8.130;2023-11-21T22:54:32;7.87;;;6.20;;
55316;SDS011;41178;48.956;8.130;2023-11-21T22:59:34;7.00;;;5.60;;
55316;SDS011;41178;48.956;8.130;2023-11-21T23:04:36;7.70;;;6.30;;
55316;SDS011;41178;48.956;8.130;2023-11-21T23:09:39;7.30;;;5.27;;
55316;SDS011;41178;48.956;8.130;2023-11-21T23:14:41;6.83;;;5.37;;
55316;SDS011;41178;48.956;8.130;2023-11-21T23:19:42;6.77;;;5.40;;
55316;SDS011;41178;48.956;8.130;2023-11-21T23:24:54;6.87;;;5.53;;
55316;SDS011;41178;48.956;8.130;2023-11-21T23:29:56;6.20;;;5.50;;
55316;SDS011;41178;48.956;8.130;2023-11-21T23:34:57;7.53;;;5.53;;
55316;SDS011;41178;48.956;8.130;2023-11-21T23:39:59;5.60;;;4.80;;
55316;SDS011;41178;48.956;8.130;2023-11-21T23:45:01;6.10;;;4.60;;
55316;SDS011;41178;48.956;8.130;2023-11-21T23:50:04;6.17;;;5.10;;
55316;SDS011;41178;48.956;8.130;2023-11-21T23:55:06;5.90;;;5.10;;
